sensor_id;sensor_type;location;lat;lon;timestamp;temperature;humidity
26336;DHT22;14047;50.936;4.654;2023-06-14T00:02:09;19.30;99.90
26336;DHT22;14047;50.936;4.654;2023-06-14T00:04:35;19.20;99.90
26336;DHT22;14047;50.936;4.654;2023-06-14T00:07:03;19.10;99.90
26336;DHT22;14047;50.936;4.654;2023-06-14T00:09:29;19.00;99.90
26336;DHT22;14047;50.936;4.654;2023-06-14T00:11:55;18.90;99.90
26336;DHT22;14047;50.936;4.654;2023-06-14T00:14:21;19.00;99.90
26336;DHT22;14047;50.936;4.654;2023-06-14T00:16:47;19.10;99.90
26336;DHT22;14047;50.936;4.654;2023-06-14T00:19:13;19.10;99.90
26336;DHT22;14047;50.936;4.654;2023-06-14T00:21:39;19.10;99.90
26336;DHT22;14047;50.936;4.654;2023-06-14T00:24:06;19.20;99.90
26336;DHT22;14047;50.936;4.654;2023-06-14T00:26:33;19.20;99.90
26336;DHT22;14047;50.936;4.654;2023-06-14T00:28:59;19.10;99.90
26336;DHT22;14047;50.936;4.654;2023-06-14T00:31:26;19.10;99.90
26336;DHT22;14047;50.936;4.654;2023-06-14T00:33:53;19.10;99.90
26336;DHT22;14047;50.936;4.654;2023-06-14T00:36:19;19.00;99.90
26336;DHT22;14047;50.936;4.654;2023-06-14T00:38:45;19.00;99.90
26336;DHT22;14047;50.936;4.654;2023-06-14T00:41:11;19.00;99.90
26336;DHT22;14047;50.936;4.654;2023-06-14T00:43:37;18.80;99.90
26336;DHT22;14047;50.936;4.654;2023-06-14T00:46:03;18.80;99.90
26336;DHT22;14047;50.936;4.654;2023-06-14T00:48:30;18.70;99.90
26336;DHT22;14047;50.936;4.654;2023-06-14T00:50:58;18.70;99.90
26336;DHT22;14047;50.936;4.654;2023-06-14T00:53:28;18.70;99.90
26336;DHT22;14047;50.936;4.654;2023-06-14T00:55:55;18.60;99.90
26336;DHT22;14047;50.936;4.654;2023-06-14T00:58:22;18.40;99.90
26336;DHT22;14047;50.936;4.654;2023-06-14T01:00:48;18.10;99.90
26336;DHT22;14047;50.936;4.654;2023-06-14T01:03:14;18.10;99.90
26336;DHT22;14047;50.936;4.654;2023-06-14T01:05:45;18.10;99.90
26336;DHT22;14047;50.936;4.654;2023-06-14T01:08:37;18.00;99.90
26336;DHT22;14047;50.936;4.654;2023-06-14T01:11:12;17.90;99.90
26336;DHT22;14047;50.936;4.654;2023-06-14T01:13:45;17.90;99.90
26336;DHT22;14047;50.936;4.654;2023-06-14T01:16:12;17.80;99.90
26336;DHT22;14047;50.936;4.654;2023-06-14T01:18:38;17.60;99.90
26336;DHT22;14047;50.936;4.654;2023-06-14T01:21:04;17.60;99.90
26336;DHT22;14047;50.936;4.654;2023-06-14T01:23:34;17.60;99.90
26336;DHT22;14047;50.936;4.654;2023-06-14T01:26:00;17.70;99.90
26336;DHT22;14047;50.936;4.654;2023-06-14T01:28:31;17.80;99.90
26336;DHT22;14047;50.936;4.654;2023-06-14T01:31:01;17.50;99.90
26336;DHT22;14047;50.936;4.654;2023-06-14T01:33:33;17.50;99.90
26336;DHT22;14047;50.936;4.654;2023-06-14T01:36:01;17.60;99.90
26336;DHT22;14047;50.936;4.654;2023-06-14T01:38:30;17.70;99.90
26336;DHT22;14047;50.936;4.654;2023-06-14T01:40:58;17.80;99.90
26336;DHT22;14047;50.936;4.654;2023-06-14T01:43:25;17.80;99.90
26336;DHT22;14047;50.936;4.654;2023-06-14T01:45:54;17.80;99.90
26336;DHT22;14047;50.936;4.654;2023-06-14T01:53:41;17.60;99.90
26336;DHT22;14047;50.936;4.654;2023-06-14T01:56:10;17.40;99.90
26336;DHT22;14047;50.936;4.654;2023-06-14T01:58:36;17.20;99.90
26336;DHT22;14047;50.936;4.654;2023-06-14T02:01:02;17.00;99.90
26336;DHT22;14047;50.936;4.654;2023-06-14T02:03:28;16.90;99.90
26336;DHT22;14047;50.936;4.654;2023-06-14T02:05:54;17.00;99.90
26336;DHT22;14047;50.936;4.654;2023-06-14T02:08:21;16.90;99.90
26336;DHT22;14047;50.936;4.654;2023-06-14T02:10:48;16.80;99.90
26336;DHT22;14047;50.936;4.654;2023-06-14T02:13:14;16.80;99.90
26336;DHT22;14047;50.936;4.654;2023-06-14T02:15:40;16.80;99.90
26336;DHT22;14047;50.936;4.654;2023-06-14T02:18:09;16.80;99.90
26336;DHT22;14047;50.936;4.654;2023-06-14T02:20:36;16.80;99.90
26336;DHT22;14047;50.936;4.654;2023-06-14T02:23:02;16.70;99.90
26336;DHT22;14047;50.936;4.654;2023-06-14T02:25:30;16.70;99.90
26336;DHT22;14047;50.936;4.654;2023-06-14T02:27:57;16.70;99.90
26336;DHT22;14047;50.936;4.654;2023-06-14T02:30:23;16.60;99.90
26336;DHT22;14047;50.936;4.654;2023-06-14T02:32:49;16.60;99.90
26336;DHT22;14047;50.936;4.654;2023-06-14T02:35:16;16.60;99.90
26336;DHT22;14047;50.936;4.654;2023-06-14T02:37:43;16.60;99.90
26336;DHT22;14047;50.936;4.654;2023-06-14T02:40:09;16.50;99.90
26336;DHT22;14047;50.936;4.654;2023-06-14T02:42:35;16.50;99.90
26336;DHT22;14047;50.936;4.654;2023-06-14T02:45:04;16.50;99.90
26336;DHT22;14047;50.936;4.654;2023-06-14T02:47:30;16.40;99.90
26336;DHT22;14047;50.936;4.654;2023-06-14T02:49:56;16.50;99.90
26336;DHT22;14047;50.936;4.654;2023-06-14T02:52:22;16.50;99.90
26336;DHT22;14047;50.936;4.654;2023-06-14T02:54:50;16.40;99.90
26336;DHT22;14047;50.936;4.654;2023-06-14T02:57:16;16.50;99.90
26336;DHT22;14047;50.936;4.654;2023-06-14T02:59:42;16.40;99.90
26336;DHT22;14047;50.936;4.654;2023-06-14T03:02:08;16.40;99.90
26336;DHT22;14047;50.936;4.654;2023-06-14T03:04:37;16.30;99.90
26336;DHT22;14047;50.936;4.654;2023-06-14T03:07:08;16.30;99.90
26336;DHT22;14047;50.936;4.654;2023-06-14T03:09:41;16.30;99.90
26336;DHT22;14047;50.936;4.654;2023-06-14T03:12:10;16.20;99.90
26336;DHT22;14047;50.936;4.654;2023-06-14T03:14:37;16.20;99.90
26336;DHT22;14047;50.936;4.654;2023-06-14T03:17:04;16.10;99.90
26336;DHT22;14047;50.936;4.654;2023-06-14T03:19:32;16.10;99.90
26336;DHT22;14047;50.936;4.654;2023-06-14T03:21:58;16.10;99.90
26336;DHT22;14047;50.936;4.654;2023-06-14T03:24:26;16.00;99.90
26336;DHT22;14047;50.936;4.654;2023-06-14T03:26:54;15.90;99.90
26336;DHT22;14047;50.936;4.654;2023-06-14T03:29:21;15.90;99.90
26336;DHT22;14047;50.936;4.654;2023-06-14T03:31:58;15.90;99.90
26336;DHT22;14047;50.936;4.654;2023-06-14T03:34:26;15.80;99.90
26336;DHT22;14047;50.936;4.654;2023-06-14T03:36:52;15.90;99.90
26336;DHT22;14047;50.936;4.654;2023-06-14T03:39:19;15.80;99.90
26336;DHT22;14047;50.936;4.654;2023-06-14T03:41:45;15.80;99.90
26336;DHT22;14047;50.936;4.654;2023-06-14T03:44:15;15.80;99.90
26336;DHT22;14047;50.936;4.654;2023-06-14T03:46:42;15.80;99.90
26336;DHT22;14047;50.936;4.654;2023-06-14T03:49:08;15.80;99.90
26336;DHT22;14047;50.936;4.654;2023-06-14T03:51:34;15.80;99.90
26336;DHT22;14047;50.936;4.654;2023-06-14T03:54:01;15.80;99.90
26336;DHT22;14047;50.936;4.654;2023-06-14T03:56:27;15.90;99.90
26336;DHT22;14047;50.936;4.654;2023-06-14T03:58:53;15.90;99.90
26336;DHT22;14047;50.936;4.654;2023-06-14T04:01:23;16.00;99.90
26336;DHT22;14047;50.936;4.654;2023-06-14T04:03:53;16.00;99.90
26336;DHT22;14047;50.936;4.654;2023-06-14T04:06:19;16.10;99.90
26336;DHT22;14047;50.936;4.654;2023-06-14T04:08:45;16.20;99.90
26336;DHT22;14047;50.936;4.654;2023-06-14T04:11:11;16.30;99.90
26336;DHT22;14047;50.936;4.654;2023-06-14T04:13:37;16.60;99.90
26336;DHT22;14047;50.936;4.654;2023-06-14T04:16:05;16.90;99.90
26336;DHT22;14047;50.936;4.654;2023-06-14T04:18:34;17.10;99.90
26336;DHT22;14047;50.936;4.654;2023-06-14T04:21:00;17.40;99.90
26336;DHT22;14047;50.936;4.654;2023-06-14T04:23:27;17.60;99.90
26336;DHT22;14047;50.936;4.654;2023-06-14T04:25:54;17.90;99.90
26336;DHT22;14047;50.936;4.654;2023-06-14T04:28:21;18.20;99.90
26336;DHT22;14047;50.936;4.654;2023-06-14T04:30:54;18.50;99.90
26336;DHT22;14047;50.936;4.654;2023-06-14T04:33:20;18.90;99.90
26336;DHT22;14047;50.936;4.654;2023-06-14T04:35:47;19.10;99.90
26336;DHT22;14047;50.936;4.654;2023-06-14T04:38:14;19.40;99.90
26336;DHT22;14047;50.936;4.654;2023-06-14T04:40:41;19.60;99.90
26336;DHT22;14047;50.936;4.654;2023-06-14T04:43:15;19.60;99.90
26336;DHT22;14047;50.936;4.654;2023-06-14T04:45:43;19.70;99.90
26336;DHT22;14047;50.936;4.654;2023-06-14T04:48:12;19.60;99.90
26336;DHT22;14047;50.936;4.654;2023-06-14T04:50:38;19.50;99.90
26336;DHT22;14047;50.936;4.654;2023-06-14T04:53:07;19.50;99.90
26336;DHT22;14047;50.936;4.654;2023-06-14T04:55:34;19.40;99.90
26336;DHT22;14047;50.936;4.654;2023-06-14T04:58:01;19.30;99.90
26336;DHT22;14047;50.936;4.654;2023-06-14T05:00:28;19.30;99.90
26336;DHT22;14047;50.936;4.654;2023-06-14T05:02:56;19.30;99.90
26336;DHT22;14047;50.936;4.654;2023-06-14T05:05:23;19.30;99.90
26336;DHT22;14047;50.936;4.654;2023-06-14T05:07:49;19.20;99.90
26336;DHT22;14047;50.936;4.654;2023-06-14T05:10:16;19.20;99.90
26336;DHT22;14047;50.936;4.654;2023-06-14T05:12:42;19.30;99.90
26336;DHT22;14047;50.936;4.654;2023-06-14T05:15:10;19.20;99.90
26336;DHT22;14047;50.936;4.654;2023-06-14T05:17:36;19.20;99.90
26336;DHT22;14047;50.936;4.654;2023-06-14T05:20:02;19.30;99.90
26336;DHT22;14047;50.936;4.654;2023-06-14T05:22:30;19.40;99.90
26336;DHT22;14047;50.936;4.654;2023-06-14T05:24:55;19.40;99.90
26336;DHT22;14047;50.936;4.654;2023-06-14T05:27:21;19.40;99.90
26336;DHT22;14047;50.936;4.654;2023-06-14T05:29:47;19.50;99.90
26336;DHT22;14047;50.936;4.654;2023-06-14T05:32:13;19.50;99.90
26336;DHT22;14047;50.936;4.654;2023-06-14T05:34:40;19.40;99.90
26336;DHT22;14047;50.936;4.654;2023-06-14T05:37:06;19.40;99.90
26336;DHT22;14047;50.936;4.654;2023-06-14T05:39:32;19.50;99.90
26336;DHT22;14047;50.936;4.654;2023-06-14T05:41:58;19.60;99.90
26336;DHT22;14047;50.936;4.654;2023-06-14T05:44:24;19.80;99.90
26336;DHT22;14047;50.936;4.654;2023-06-14T05:46:50;19.90;99.90
26336;DHT22;14047;50.936;4.654;2023-06-14T05:49:16;20.00;99.90
26336;DHT22;14047;50.936;4.654;2023-06-14T05:51:45;20.00;99.90
26336;DHT22;14047;50.936;4.654;2023-06-14T05:54:11;20.20;99.90
26336;DHT22;14047;50.936;4.654;2023-06-14T05:56:37;20.30;99.90
26336;DHT22;14047;50.936;4.654;2023-06-14T05:59:03;20.30;99.90
26336;DHT22;14047;50.936;4.654;2023-06-14T06:01:29;20.40;99.90
26336;DHT22;14047;50.936;4.654;2023-06-14T06:03:56;20.30;99.90
26336;DHT22;14047;50.936;4.654;2023-06-14T06:06:22;20.20;99.90
26336;DHT22;14047;50.936;4.654;2023-06-14T06:08:48;20.30;99.90
26336;DHT22;14047;50.936;4.654;2023-06-14T06:11:14;20.40;99.90
26336;DHT22;14047;50.936;4.654;2023-06-14T06:13:40;20.60;99.90
26336;DHT22;14047;50.936;4.654;2023-06-14T06:16:07;20.70;99.90
26336;DHT22;14047;50.936;4.654;2023-06-14T06:18:33;20.90;99.90
26336;DHT22;14047;50.936;4.654;2023-06-14T06:21:00;20.90;99.90
26336;DHT22;14047;50.936;4.654;2023-06-14T06:23:26;20.80;99.90
26336;DHT22;14047;50.936;4.654;2023-06-14T06:25:52;20.90;99.90
26336;DHT22;14047;50.936;4.654;2023-06-14T06:28:19;21.00;99.90
26336;DHT22;14047;50.936;4.654;2023-06-14T06:30:46;20.90;99.90
26336;DHT22;14047;50.936;4.654;2023-06-14T06:33:12;21.10;99.90
26336;DHT22;14047;50.936;4.654;2023-06-14T06:35:38;20.80;99.90
26336;DHT22;14047;50.936;4.654;2023-06-14T06:38:04;20.50;99.90
26336;DHT22;14047;50.936;4.654;2023-06-14T06:40:30;20.60;99.90
26336;DHT22;14047;50.936;4.654;2023-06-14T06:42:56;20.50;99.90
26336;DHT22;14047;50.936;4.654;2023-06-14T06:45:26;20.70;99.90
26336;DHT22;14047;50.936;4.654;2023-06-14T06:47:52;20.90;99.90
26336;DHT22;14047;50.936;4.654;2023-06-14T06:50:18;20.90;99.90
26336;DHT22;14047;50.936;4.654;2023-06-14T06:52:45;20.90;99.90
26336;DHT22;14047;50.936;4.654;2023-06-14T06:55:11;21.00;99.90
26336;DHT22;14047;50.936;4.654;2023-06-14T06:57:37;21.30;99.90
26336;DHT22;14047;50.936;4.654;2023-06-14T07:00:03;21.30;99.90
26336;DHT22;14047;50.936;4.654;2023-06-14T07:02:33;21.50;99.90
26336;DHT22;14047;50.936;4.654;2023-06-14T07:04:59;21.60;99.90
26336;DHT22;14047;50.936;4.654;2023-06-14T07:07:25;21.50;99.90
26336;DHT22;14047;50.936;4.654;2023-06-14T07:09:51;21.50;99.90
26336;DHT22;14047;50.936;4.654;2023-06-14T07:12:18;21.60;99.90
26336;DHT22;14047;50.936;4.654;2023-06-14T07:14:44;21.60;99.90
26336;DHT22;14047;50.936;4.654;2023-06-14T07:17:10;21.50;99.90
26336;DHT22;14047;50.936;4.654;2023-06-14T07:19:37;21.80;99.90
26336;DHT22;14047;50.936;4.654;2023-06-14T07:22:03;22.10;99.90
26336;DHT22;14047;50.936;4.654;2023-06-14T07:24:29;22.30;99.90
26336;DHT22;14047;50.936;4.654;2023-06-14T07:26:55;22.40;99.90
26336;DHT22;14047;50.936;4.654;2023-06-14T07:29:22;22.40;99.90
26336;DHT22;14047;50.936;4.654;2023-06-14T07:31:47;22.50;99.90
26336;DHT22;14047;50.936;4.654;2023-06-14T07:34:13;22.60;99.90
26336;DHT22;14047;50.936;4.654;2023-06-14T07:36:40;22.40;99.90
26336;DHT22;14047;50.936;4.654;2023-06-14T07:39:06;22.50;99.90
26336;DHT22;14047;50.936;4.654;2023-06-14T07:41:32;22.70;99.90
26336;DHT22;14047;50.936;4.654;2023-06-14T07:43:59;22.60;99.90
26336;DHT22;14047;50.936;4.654;2023-06-14T07:46:24;22.40;99.90
26336;DHT22;14047;50.936;4.654;2023-06-14T07:48:50;22.70;99.90
26336;DHT22;14047;50.936;4.654;2023-06-14T07:51:17;22.80;99.90
26336;DHT22;14047;50.936;4.654;2023-06-14T07:53:43;22.90;99.90
26336;DHT22;14047;50.936;4.654;2023-06-14T07:56:09;23.00;99.90
26336;DHT22;14047;50.936;4.654;2023-06-14T07:58:35;22.80;99.90
26336;DHT22;14047;50.936;4.654;2023-06-14T08:01:01;23.00;99.90
26336;DHT22;14047;50.936;4.654;2023-06-14T08:03:32;23.10;99.90
26336;DHT22;14047;50.936;4.654;2023-06-14T08:05:58;23.30;99.90
26336;DHT22;14047;50.936;4.654;2023-06-14T08:08:24;23.30;99.90
26336;DHT22;14047;50.936;4.654;2023-06-14T08:10:50;23.40;99.90
26336;DHT22;14047;50.936;4.654;2023-06-14T08:13:16;23.30;99.90
26336;DHT22;14047;50.936;4.654;2023-06-14T08:15:42;23.20;99.90
26336;DHT22;14047;50.936;4.654;2023-06-14T08:18:08;22.90;99.90
26336;DHT22;14047;50.936;4.654;2023-06-14T08:20:34;23.00;99.90
26336;DHT22;14047;50.936;4.654;2023-06-14T08:23:04;23.40;99.90
26336;DHT22;14047;50.936;4.654;2023-06-14T08:25:30;23.70;99.90
26336;DHT22;14047;50.936;4.654;2023-06-14T08:27:57;23.90;99.90
26336;DHT22;14047;50.936;4.654;2023-06-14T08:30:22;24.20;99.90
26336;DHT22;14047;50.936;4.654;2023-06-14T08:32:52;24.50;99.90
26336;DHT22;14047;50.936;4.654;2023-06-14T08:35:22;24.50;99.90
26336;DHT22;14047;50.936;4.654;2023-06-14T08:37:48;24.50;99.90
26336;DHT22;14047;50.936;4.654;2023-06-14T08:40:23;24.30;99.90
26336;DHT22;14047;50.936;4.654;2023-06-14T08:42:53;24.50;99.90
26336;DHT22;14047;50.936;4.654;2023-06-14T08:45:24;24.40;99.90
26336;DHT22;14047;50.936;4.654;2023-06-14T08:47:51;24.20;99.90
26336;DHT22;14047;50.936;4.654;2023-06-14T08:50:24;24.00;99.90
26336;DHT22;14047;50.936;4.654;2023-06-14T08:53:00;24.40;99.90
26336;DHT22;14047;50.936;4.654;2023-06-14T08:55:28;24.60;99.90
26336;DHT22;14047;50.936;4.654;2023-06-14T08:57:58;24.70;99.90
26336;DHT22;14047;50.936;4.654;2023-06-14T09:00:25;24.70;99.90
26336;DHT22;14047;50.936;4.654;2023-06-14T09:02:52;24.60;99.90
26336;DHT22;14047;50.936;4.654;2023-06-14T09:05:27;24.60;99.90
26336;DHT22;14047;50.936;4.654;2023-06-14T09:07:54;24.80;99.90
26336;DHT22;14047;50.936;4.654;2023-06-14T09:10:27;24.90;99.90
26336;DHT22;14047;50.936;4.654;2023-06-14T09:12:55;24.80;99.90
26336;DHT22;14047;50.936;4.654;2023-06-14T09:15:21;24.90;99.90
26336;DHT22;14047;50.936;4.654;2023-06-14T09:17:47;25.00;99.90
26336;DHT22;14047;50.936;4.654;2023-06-14T09:20:13;24.80;99.90
26336;DHT22;14047;50.936;4.654;2023-06-14T09:22:43;24.80;99.90
26336;DHT22;14047;50.936;4.654;2023-06-14T09:25:10;24.70;99.90
26336;DHT22;14047;50.936;4.654;2023-06-14T09:27:36;24.90;99.90
26336;DHT22;14047;50.936;4.654;2023-06-14T09:30:08;24.80;99.90
26336;DHT22;14047;50.936;4.654;2023-06-14T09:32:38;25.00;99.90
26336;DHT22;14047;50.936;4.654;2023-06-14T09:35:09;25.10;99.90
26336;DHT22;14047;50.936;4.654;2023-06-14T09:37:38;25.20;99.90
26336;DHT22;14047;50.936;4.654;2023-06-14T09:40:05;25.10;99.90
26336;DHT22;14047;50.936;4.654;2023-06-14T09:42:33;25.30;99.90
26336;DHT22;14047;50.936;4.654;2023-06-14T09:45:02;25.70;99.90
26336;DHT22;14047;50.936;4.654;2023-06-14T09:47:32;25.20;99.90
26336;DHT22;14047;50.936;4.654;2023-06-14T09:49:58;25.00;99.90
26336;DHT22;14047;50.936;4.654;2023-06-14T09:52:25;25.10;99.90
26336;DHT22;14047;50.936;4.654;2023-06-14T09:54:55;25.20;99.90
26336;DHT22;14047;50.936;4.654;2023-06-14T09:57:22;25.30;99.90
26336;DHT22;14047;50.936;4.654;2023-06-14T09:59:53;25.50;99.90
26336;DHT22;14047;50.936;4.654;2023-06-14T10:02:37;25.50;99.90
26336;DHT22;14047;50.936;4.654;2023-06-14T10:05:08;25.60;99.90
26336;DHT22;14047;50.936;4.654;2023-06-14T10:07:53;25.50;99.90
26336;DHT22;14047;50.936;4.654;2023-06-14T10:10:21;25.50;99.90
26336;DHT22;14047;50.936;4.654;2023-06-14T10:12:50;26.00;99.90
26336;DHT22;14047;50.936;4.654;2023-06-14T10:16:21;26.40;99.90
26336;DHT22;14047;50.936;4.654;2023-06-14T10:23:20;26.70;99.90
26336;DHT22;14047;50.936;4.654;2023-06-14T10:25:50;26.90;99.90
26336;DHT22;14047;50.936;4.654;2023-06-14T10:28:21;27.30;99.90
26336;DHT22;14047;50.936;4.654;2023-06-14T10:31:10;27.50;99.90
26336;DHT22;14047;50.936;4.654;2023-06-14T10:33:40;27.60;99.90
26336;DHT22;14047;50.936;4.654;2023-06-14T10:36:26;27.00;99.90
26336;DHT22;14047;50.936;4.654;2023-06-14T10:39:15;26.50;99.90
26336;DHT22;14047;50.936;4.654;2023-06-14T10:41:41;26.40;99.90
26336;DHT22;14047;50.936;4.654;2023-06-14T10:46:41;26.90;99.90
26336;DHT22;14047;50.936;4.654;2023-06-14T10:49:11;27.10;99.90
26336;DHT22;14047;50.936;4.654;2023-06-14T10:51:49;27.40;99.90
26336;DHT22;14047;50.936;4.654;2023-06-14T10:54:16;27.40;99.20
26336;DHT22;14047;50.936;4.654;2023-06-14T10:56:50;27.60;98.90
26336;DHT22;14047;50.936;4.654;2023-06-14T10:59:18;27.90;97.80
26336;DHT22;14047;50.936;4.654;2023-06-14T11:01:58;28.20;99.00
26336;DHT22;14047;50.936;4.654;2023-06-14T11:10:37;28.10;97.00
26336;DHT22;14047;50.936;4.654;2023-06-14T11:13:04;28.10;96.40
26336;DHT22;14047;50.936;4.654;2023-06-14T11:15:34;27.90;96.20
26336;DHT22;14047;50.936;4.654;2023-06-14T11:18:02;27.70;97.10
26336;DHT22;14047;50.936;4.654;2023-06-14T11:20:31;27.80;95.90
26336;DHT22;14047;50.936;4.654;2023-06-14T11:22:57;28.10;95.20
26336;DHT22;14047;50.936;4.654;2023-06-14T11:25:24;27.90;95.10
26336;DHT22;14047;50.936;4.654;2023-06-14T11:27:51;27.70;95.40
26336;DHT22;14047;50.936;4.654;2023-06-14T11:30:17;27.50;95.70
26336;DHT22;14047;50.936;4.654;2023-06-14T11:32:47;27.60;96.00
26336;DHT22;14047;50.936;4.654;2023-06-14T11:35:14;27.90;94.60
26336;DHT22;14047;50.936;4.654;2023-06-14T11:37:40;27.90;94.70
26336;DHT22;14047;50.936;4.654;2023-06-14T11:40:08;28.10;94.90
26336;DHT22;14047;50.936;4.654;2023-06-14T11:42:36;28.00;94.20
26336;DHT22;14047;50.936;4.654;2023-06-14T11:45:03;27.80;94.10
26336;DHT22;14047;50.936;4.654;2023-06-14T11:47:38;27.20;96.10
26336;DHT22;14047;50.936;4.654;2023-06-14T11:50:06;27.00;95.60
26336;DHT22;14047;50.936;4.654;2023-06-14T11:52:32;26.80;96.90
26336;DHT22;14047;50.936;4.654;2023-06-14T11:54:58;26.70;95.80
26336;DHT22;14047;50.936;4.654;2023-06-14T11:57:25;26.70;96.00
26336;DHT22;14047;50.936;4.654;2023-06-14T11:59:51;26.80;95.70
26336;DHT22;14047;50.936;4.654;2023-06-14T12:02:21;26.70;95.50
26336;DHT22;14047;50.936;4.654;2023-06-14T12:04:47;26.40;96.60
26336;DHT22;14047;50.936;4.654;2023-06-14T12:07:15;26.60;96.50
26336;DHT22;14047;50.936;4.654;2023-06-14T12:12:35;26.40;95.50
26336;DHT22;14047;50.936;4.654;2023-06-14T12:15:06;26.30;95.80
26336;DHT22;14047;50.936;4.654;2023-06-14T12:17:34;26.70;94.70
26336;DHT22;14047;50.936;4.654;2023-06-14T12:20:06;27.10;94.60
26336;DHT22;14047;50.936;4.654;2023-06-14T12:22:52;27.00;94.60
26336;DHT22;14047;50.936;4.654;2023-06-14T12:25:36;27.10;94.60
26336;DHT22;14047;50.936;4.654;2023-06-14T12:28:09;27.60;93.90
26336;DHT22;14047;50.936;4.654;2023-06-14T12:30:36;27.80;93.60
26336;DHT22;14047;50.936;4.654;2023-06-14T12:33:03;27.90;92.10
26336;DHT22;14047;50.936;4.654;2023-06-14T12:35:29;27.40;93.10
26336;DHT22;14047;50.936;4.654;2023-06-14T12:37:55;27.60;92.90
26336;DHT22;14047;50.936;4.654;2023-06-14T12:40:22;28.00;94.00
26336;DHT22;14047;50.936;4.654;2023-06-14T12:42:48;28.40;91.60
26336;DHT22;14047;50.936;4.654;2023-06-14T12:45:14;28.30;90.90
26336;DHT22;14047;50.936;4.654;2023-06-14T12:47:40;28.00;89.80
26336;DHT22;14047;50.936;4.654;2023-06-14T12:50:07;27.60;90.70
26336;DHT22;14047;50.936;4.654;2023-06-14T12:52:33;27.00;90.00
26336;DHT22;14047;50.936;4.654;2023-06-14T12:55:03;26.70;89.30
26336;DHT22;14047;50.936;4.654;2023-06-14T12:57:29;26.80;91.80
26336;DHT22;14047;50.936;4.654;2023-06-14T12:59:55;26.80;90.80
26336;DHT22;14047;50.936;4.654;2023-06-14T13:02:21;27.10;91.60
26336;DHT22;14047;50.936;4.654;2023-06-14T13:04:51;27.10;91.00
26336;DHT22;14047;50.936;4.654;2023-06-14T13:07:17;27.30;90.80
26336;DHT22;14047;50.936;4.654;2023-06-14T13:09:43;27.80;87.60
26336;DHT22;14047;50.936;4.654;2023-06-14T13:12:10;27.80;86.70
26336;DHT22;14047;50.936;4.654;2023-06-14T13:14:40;27.60;86.90
26336;DHT22;14047;50.936;4.654;2023-06-14T13:17:08;27.60;88.00
26336;DHT22;14047;50.936;4.654;2023-06-14T13:19:35;27.90;87.10
26336;DHT22;14047;50.936;4.654;2023-06-14T13:22:01;28.10;85.10
26336;DHT22;14047;50.936;4.654;2023-06-14T13:24:28;27.80;84.80
26336;DHT22;14047;50.936;4.654;2023-06-14T13:26:55;27.40;87.30
26336;DHT22;14047;50.936;4.654;2023-06-14T13:29:23;27.40;86.40
26336;DHT22;14047;50.936;4.654;2023-06-14T13:31:49;27.40;84.40
26336;DHT22;14047;50.936;4.654;2023-06-14T13:34:15;27.50;86.70
26336;DHT22;14047;50.936;4.654;2023-06-14T13:36:41;28.00;88.00
26336;DHT22;14047;50.936;4.654;2023-06-14T13:39:07;27.90;88.00
26336;DHT22;14047;50.936;4.654;2023-06-14T13:41:34;27.60;87.20
26336;DHT22;14047;50.936;4.654;2023-06-14T13:44:01;27.40;85.10
26336;DHT22;14047;50.936;4.654;2023-06-14T13:46:30;27.70;88.50
26336;DHT22;14047;50.936;4.654;2023-06-14T13:48:57;28.00;84.80
26336;DHT22;14047;50.936;4.654;2023-06-14T13:51:27;27.80;85.60
26336;DHT22;14047;50.936;4.654;2023-06-14T13:53:53;27.70;84.60
26336;DHT22;14047;50.936;4.654;2023-06-14T13:56:21;28.20;85.10
26336;DHT22;14047;50.936;4.654;2023-06-14T13:58:48;28.40;83.20
26336;DHT22;14047;50.936;4.654;2023-06-14T14:01:14;28.50;80.90
26336;DHT22;14047;50.936;4.654;2023-06-14T14:03:40;28.50;81.70
26336;DHT22;14047;50.936;4.654;2023-06-14T14:06:06;28.30;84.00
26336;DHT22;14047;50.936;4.654;2023-06-14T14:08:33;28.60;83.70
26336;DHT22;14047;50.936;4.654;2023-06-14T14:10:59;29.10;81.60
26336;DHT22;14047;50.936;4.654;2023-06-14T14:13:25;29.80;79.80
26336;DHT22;14047;50.936;4.654;2023-06-14T14:15:51;29.70;77.90
26336;DHT22;14047;50.936;4.654;2023-06-14T14:18:18;29.40;79.30
26336;DHT22;14047;50.936;4.654;2023-06-14T14:20:47;29.90;75.80
26336;DHT22;14047;50.936;4.654;2023-06-14T14:23:13;28.50;76.50
26336;DHT22;14047;50.936;4.654;2023-06-14T14:25:39;28.60;79.70
26336;DHT22;14047;50.936;4.654;2023-06-14T14:28:04;29.80;77.60
26336;DHT22;14047;50.936;4.654;2023-06-14T14:30:30;31.60;75.70
26336;DHT22;14047;50.936;4.654;2023-06-14T14:32:56;31.70;72.90
26336;DHT22;14047;50.936;4.654;2023-06-14T14:35:22;30.10;75.20
26336;DHT22;14047;50.936;4.654;2023-06-14T14:37:50;30.40;75.70
26336;DHT22;14047;50.936;4.654;2023-06-14T14:40:16;31.00;75.90
26336;DHT22;14047;50.936;4.654;2023-06-14T14:42:42;31.80;72.80
26336;DHT22;14047;50.936;4.654;2023-06-14T14:45:08;31.60;73.40
26336;DHT22;14047;50.936;4.654;2023-06-14T14:47:34;31.20;74.00
26336;DHT22;14047;50.936;4.654;2023-06-14T14:50:00;31.90;72.30
26336;DHT22;14047;50.936;4.654;2023-06-14T14:52:26;32.40;72.30
26336;DHT22;14047;50.936;4.654;2023-06-14T14:54:52;31.20;70.10
26336;DHT22;14047;50.936;4.654;2023-06-14T14:57:20;31.40;70.10
26336;DHT22;14047;50.936;4.654;2023-06-14T14:59:47;32.80;70.70
26336;DHT22;14047;50.936;4.654;2023-06-14T15:02:13;33.70;69.60
26336;DHT22;14047;50.936;4.654;2023-06-14T15:04:38;34.00;67.50
26336;DHT22;14047;50.936;4.654;2023-06-14T15:07:04;32.10;65.00
26336;DHT22;14047;50.936;4.654;2023-06-14T15:09:31;31.70;68.90
26336;DHT22;14047;50.936;4.654;2023-06-14T15:11:57;31.20;69.80
26336;DHT22;14047;50.936;4.654;2023-06-14T15:14:23;31.70;69.40
26336;DHT22;14047;50.936;4.654;2023-06-14T15:16:49;32.40;68.80
26336;DHT22;14047;50.936;4.654;2023-06-14T15:19:18;32.80;67.40
26336;DHT22;14047;50.936;4.654;2023-06-14T15:21:44;33.00;66.40
26336;DHT22;14047;50.936;4.654;2023-06-14T15:24:10;33.70;64.90
26336;DHT22;14047;50.936;4.654;2023-06-14T15:26:36;33.90;66.20
26336;DHT22;14047;50.936;4.654;2023-06-14T15:29:02;34.60;65.30
26336;DHT22;14047;50.936;4.654;2023-06-14T15:31:28;34.60;62.70
26336;DHT22;14047;50.936;4.654;2023-06-14T15:33:54;33.20;65.70
26336;DHT22;14047;50.936;4.654;2023-06-14T15:36:20;31.50;65.80
26336;DHT22;14047;50.936;4.654;2023-06-14T15:38:46;30.70;68.20
26336;DHT22;14047;50.936;4.654;2023-06-14T15:41:12;30.60;68.60
26336;DHT22;14047;50.936;4.654;2023-06-14T15:43:38;31.60;67.40
26336;DHT22;14047;50.936;4.654;2023-06-14T15:46:04;32.00;66.70
26336;DHT22;14047;50.936;4.654;2023-06-14T15:48:30;32.30;66.20
26336;DHT22;14047;50.936;4.654;2023-06-14T15:50:56;31.70;67.90
26336;DHT22;14047;50.936;4.654;2023-06-14T15:53:22;31.60;68.00
26336;DHT22;14047;50.936;4.654;2023-06-14T15:55:48;32.00;68.00